Terminal Aerodrome Forecast
Issued by NWS

Home | Current Version | Previous Version | Text Only | Print | Product List | Glossary Off
Versions: 1 2 3 4 5 6 7 8 9 10 11 12 13 14 15 16 17 18 19 20 21 22 23 24 25 26 27

000
FTUS43 KABR 281100
TAFATY
TAF
KATY 281131Z 2812/2912 16008KT P6SM FEW100
     FM281800 17007KT P6SM BKN060
     FM282200 04008KT P6SM -SHRA BKN050
     FM290600 04011KT P6SM -SHRA OVC015
      AMD NOT SKED=

USA.gov is the U.S. government's official web portal to all federal, state and local government web resources and services.